sensor_id;sensor_type;location;lat;lon;timestamp;P1;durP1;ratioP1;P2;durP2;ratioP2
3922;SDS011;1976;51.694;6.256;2023-04-16T00:02:22;18.63;;;5.10;;
3922;SDS011;1976;51.694;6.256;2023-04-16T00:04:48;20.83;;;6.47;;
3922;SDS011;1976;51.694;6.256;2023-04-16T00:07:14;20.43;;;7.03;;
3922;SDS011;1976;51.694;6.256;2023-04-16T00:09:40;14.87;;;6.43;;
3922;SDS011;1976;51.694;6.256;2023-04-16T00:12:06;10.60;;;6.03;;
3922;SDS011;1976;51.694;6.256;2023-04-16T00:14:32;17.10;;;6.83;;
3922;SDS011;1976;51.694;6.256;2023-04-16T00:16:58;16.30;;;5.13;;
3922;SDS011;1976;51.694;6.256;2023-04-16T00:19:24;8.87;;;5.40;;
3922;SDS011;1976;51.694;6.256;2023-04-16T00:21:50;14.73;;;7.00;;
3922;SDS011;1976;51.694;6.256;2023-04-16T00:24:16;15.60;;;6.20;;
3922;SDS011;1976;51.694;6.256;2023-04-16T00:26:42;13.37;;;6.07;;
3922;SDS011;1976;51.694;6.256;2023-04-16T00:29:10;12.10;;;6.20;;
3922;SDS011;1976;51.694;6.256;2023-04-16T00:31:36;18.13;;;5.83;;
3922;SDS011;1976;51.694;6.256;2023-04-16T00:34:02;22.00;;;6.90;;
3922;SDS011;1976;51.694;6.256;2023-04-16T00:36:29;17.83;;;6.80;;
3922;SDS011;1976;51.694;6.256;2023-04-16T00:38:55;19.53;;;6.73;;
3922;SDS011;1976;51.694;6.256;2023-04-16T00:41:21;17.17;;;7.60;;
3922;SDS011;1976;51.694;6.256;2023-04-16T00:43:50;27.73;;;7.60;;
3922;SDS011;1976;51.694;6.256;2023-04-16T00:46:18;17.80;;;7.80;;
3922;SDS011;1976;51.694;6.256;2023-04-16T00:48:46;13.47;;;5.80;;
3922;SDS011;1976;51.694;6.256;2023-04-16T00:51:13;14.63;;;7.70;;
3922;SDS011;1976;51.694;6.256;2023-04-16T00:53:39;27.73;;;7.10;;
3922;SDS011;1976;51.694;6.256;2023-04-16T00:56:05;14.13;;;6.77;;
3922;SDS011;1976;51.694;6.256;2023-04-16T00:58:32;19.67;;;7.03;;
3922;SDS011;1976;51.694;6.256;2023-04-16T01:00:59;19.13;;;7.57;;
3922;SDS011;1976;51.694;6.256;2023-04-16T01:03:28;15.03;;;6.80;;
3922;SDS011;1976;51.694;6.256;2023-04-16T01:05:56;9.87;;;6.50;;
3922;SDS011;1976;51.694;6.256;2023-04-16T01:08:22;18.20;;;8.70;;
3922;SDS011;1976;51.694;6.256;2023-04-16T01:10:48;17.27;;;6.97;;
3922;SDS011;1976;51.694;6.256;2023-04-16T01:13:14;16.80;;;6.70;;
3922;SDS011;1976;51.694;6.256;2023-04-16T01:15:39;18.60;;;7.33;;
3922;SDS011;1976;51.694;6.256;2023-04-16T01:18:15;26.60;;;8.63;;
3922;SDS011;1976;51.694;6.256;2023-04-16T01:20:41;14.90;;;6.67;;
3922;SDS011;1976;51.694;6.256;2023-04-16T01:23:07;17.83;;;7.47;;
3922;SDS011;1976;51.694;6.256;2023-04-16T01:25:33;12.60;;;6.53;;
3922;SDS011;1976;51.694;6.256;2023-04-16T01:27:59;22.53;;;6.87;;
3922;SDS011;1976;51.694;6.256;2023-04-16T01:30:25;24.43;;;8.07;;
3922;SDS011;1976;51.694;6.256;2023-04-16T01:32:51;20.93;;;6.77;;
3922;SDS011;1976;51.694;6.256;2023-04-16T01:35:17;11.80;;;6.17;;
3922;SDS011;1976;51.694;6.256;2023-04-16T01:37:43;16.33;;;7.53;;
3922;SDS011;1976;51.694;6.256;2023-04-16T01:40:09;16.40;;;6.90;;
3922;SDS011;1976;51.694;6.256;2023-04-16T01:42:35;13.00;;;6.40;;
3922;SDS011;1976;51.694;6.256;2023-04-16T01:45:01;14.70;;;6.77;;
3922;SDS011;1976;51.694;6.256;2023-04-16T01:47:27;17.93;;;7.53;;
3922;SDS011;1976;51.694;6.256;2023-04-16T01:49:54;11.07;;;6.57;;
3922;SDS011;1976;51.694;6.256;2023-04-16T01:52:20;19.50;;;8.20;;
3922;SDS011;1976;51.694;6.256;2023-04-16T01:54:46;15.30;;;7.80;;
3922;SDS011;1976;51.694;6.256;2023-04-16T01:57:12;15.33;;;6.37;;
3922;SDS011;1976;51.694;6.256;2023-04-16T01:59:38;14.03;;;6.80;;
3922;SDS011;1976;51.694;6.256;2023-04-16T02:02:08;24.53;;;7.97;;
3922;SDS011;1976;51.694;6.256;2023-04-16T02:04:38;22.87;;;9.63;;
3922;SDS011;1976;51.694;6.256;2023-04-16T02:07:05;13.50;;;7.53;;
3922;SDS011;1976;51.694;6.256;2023-04-16T02:09:32;15.63;;;7.47;;
3922;SDS011;1976;51.694;6.256;2023-04-16T02:11:58;15.13;;;7.57;;
3922;SDS011;1976;51.694;6.256;2023-04-16T02:14:26;21.30;;;8.87;;
3922;SDS011;1976;51.694;6.256;2023-04-16T02:16:52;21.63;;;8.47;;
3922;SDS011;1976;51.694;6.256;2023-04-16T02:19:18;25.37;;;8.63;;
3922;SDS011;1976;51.694;6.256;2023-04-16T02:21:44;16.97;;;8.27;;
3922;SDS011;1976;51.694;6.256;2023-04-16T02:24:10;19.53;;;8.43;;
3922;SDS011;1976;51.694;6.256;2023-04-16T02:26:36;12.90;;;7.43;;
3922;SDS011;1976;51.694;6.256;2023-04-16T02:29:02;18.80;;;7.33;;
3922;SDS011;1976;51.694;6.256;2023-04-16T02:31:28;23.63;;;8.40;;
3922;SDS011;1976;51.694;6.256;2023-04-16T02:33:55;17.93;;;8.40;;
3922;SDS011;1976;51.694;6.256;2023-04-16T02:36:21;15.83;;;7.33;;
3922;SDS011;1976;51.694;6.256;2023-04-16T02:38:47;18.33;;;7.80;;
3922;SDS011;1976;51.694;6.256;2023-04-16T02:41:13;19.40;;;9.20;;
3922;SDS011;1976;51.694;6.256;2023-04-16T02:43:39;20.33;;;9.27;;
3922;SDS011;1976;51.694;6.256;2023-04-16T02:46:05;20.97;;;8.63;;
3922;SDS011;1976;51.694;6.256;2023-04-16T02:48:31;20.20;;;8.63;;
3922;SDS011;1976;51.694;6.256;2023-04-16T02:50:57;18.47;;;8.10;;
3922;SDS011;1976;51.694;6.256;2023-04-16T02:53:23;12.63;;;8.60;;
3922;SDS011;1976;51.694;6.256;2023-04-16T02:55:50;19.40;;;10.23;;
3922;SDS011;1976;51.694;6.256;2023-04-16T02:58:22;28.03;;;9.00;;
3922;SDS011;1976;51.694;6.256;2023-04-16T03:00:49;15.27;;;8.50;;
3922;SDS011;1976;51.694;6.256;2023-04-16T03:03:16;14.43;;;8.00;;
3922;SDS011;1976;51.694;6.256;2023-04-16T03:05:42;19.33;;;8.53;;
3922;SDS011;1976;51.694;6.256;2023-04-16T03:08:08;18.67;;;9.63;;
3922;SDS011;1976;51.694;6.256;2023-04-16T03:10:33;17.03;;;9.07;;
3922;SDS011;1976;51.694;6.256;2023-04-16T03:13:00;33.20;;;11.27;;
3922;SDS011;1976;51.694;6.256;2023-04-16T03:15:26;29.67;;;9.33;;
3922;SDS011;1976;51.694;6.256;2023-04-16T03:17:52;26.33;;;10.20;;
3922;SDS011;1976;51.694;6.256;2023-04-16T03:20:18;21.40;;;9.80;;
3922;SDS011;1976;51.694;6.256;2023-04-16T03:22:45;21.63;;;9.10;;
3922;SDS011;1976;51.694;6.256;2023-04-16T03:25:11;25.20;;;11.07;;
3922;SDS011;1976;51.694;6.256;2023-04-16T03:27:36;14.97;;;8.30;;
3922;SDS011;1976;51.694;6.256;2023-04-16T03:30:04;24.60;;;9.13;;
3922;SDS011;1976;51.694;6.256;2023-04-16T03:32:31;24.97;;;10.97;;
3922;SDS011;1976;51.694;6.256;2023-04-16T03:34:56;23.27;;;9.77;;
3922;SDS011;1976;51.694;6.256;2023-04-16T03:37:22;21.87;;;9.80;;
3922;SDS011;1976;51.694;6.256;2023-04-16T03:39:48;23.37;;;10.30;;
3922;SDS011;1976;51.694;6.256;2023-04-16T03:42:14;24.20;;;10.20;;
3922;SDS011;1976;51.694;6.256;2023-04-16T03:44:40;20.17;;;9.10;;
3922;SDS011;1976;51.694;6.256;2023-04-16T03:47:06;22.63;;;10.13;;
3922;SDS011;1976;51.694;6.256;2023-04-16T03:49:32;17.83;;;9.97;;
3922;SDS011;1976;51.694;6.256;2023-04-16T03:51:58;26.27;;;10.30;;
3922;SDS011;1976;51.694;6.256;2023-04-16T03:54:24;24.47;;;10.70;;
3922;SDS011;1976;51.694;6.256;2023-04-16T03:56:50;32.47;;;9.63;;
3922;SDS011;1976;51.694;6.256;2023-04-16T03:59:17;23.13;;;10.17;;
3922;SDS011;1976;51.694;6.256;2023-04-16T04:01:43;21.00;;;10.80;;
3922;SDS011;1976;51.694;6.256;2023-04-16T04:04:09;26.37;;;10.00;;
3922;SDS011;1976;51.694;6.256;2023-04-16T04:06:35;24.23;;;10.40;;
3922;SDS011;1976;51.694;6.256;2023-04-16T04:09:01;24.03;;;10.90;;
3922;SDS011;1976;51.694;6.256;2023-04-16T04:11:27;26.33;;;10.50;;
3922;SDS011;1976;51.694;6.256;2023-04-16T04:13:53;24.53;;;11.20;;
3922;SDS011;1976;51.694;6.256;2023-04-16T04:16:19;23.00;;;10.30;;
3922;SDS011;1976;51.694;6.256;2023-04-16T04:18:45;28.67;;;11.23;;
3922;SDS011;1976;51.694;6.256;2023-04-16T04:21:11;24.80;;;12.30;;
3922;SDS011;1976;51.694;6.256;2023-04-16T04:23:37;26.30;;;10.90;;
3922;SDS011;1976;51.694;6.256;2023-04-16T04:26:03;20.30;;;10.77;;
3922;SDS011;1976;51.694;6.256;2023-04-16T04:28:29;21.47;;;10.13;;
3922;SDS011;1976;51.694;6.256;2023-04-16T04:30:56;32.90;;;11.83;;
3922;SDS011;1976;51.694;6.256;2023-04-16T04:33:22;26.90;;;11.30;;
3922;SDS011;1976;51.694;6.256;2023-04-16T04:35:49;25.80;;;11.77;;
3922;SDS011;1976;51.694;6.256;2023-04-16T04:38:15;28.37;;;11.40;;
3922;SDS011;1976;51.694;6.256;2023-04-16T04:40:43;30.80;;;12.00;;
3922;SDS011;1976;51.694;6.256;2023-04-16T04:43:09;21.60;;;10.63;;
3922;SDS011;1976;51.694;6.256;2023-04-16T04:45:36;28.33;;;12.07;;
3922;SDS011;1976;51.694;6.256;2023-04-16T04:48:02;18.47;;;10.47;;
3922;SDS011;1976;51.694;6.256;2023-04-16T04:50:28;23.10;;;11.47;;
3922;SDS011;1976;51.694;6.256;2023-04-16T04:52:53;22.80;;;11.23;;
3922;SDS011;1976;51.694;6.256;2023-04-16T04:55:19;23.87;;;11.37;;
3922;SDS011;1976;51.694;6.256;2023-04-16T04:57:45;32.10;;;13.27;;
3922;SDS011;1976;51.694;6.256;2023-04-16T05:00:11;25.50;;;12.00;;
3922;SDS011;1976;51.694;6.256;2023-04-16T05:02:37;24.23;;;11.53;;
3922;SDS011;1976;51.694;6.256;2023-04-16T05:05:04;28.20;;;12.03;;
3922;SDS011;1976;51.694;6.256;2023-04-16T05:07:30;25.03;;;12.13;;
3922;SDS011;1976;51.694;6.256;2023-04-16T05:09:56;30.97;;;11.53;;
3922;SDS011;1976;51.694;6.256;2023-04-16T05:12:22;33.43;;;11.93;;
3922;SDS011;1976;51.694;6.256;2023-04-16T05:14:48;33.50;;;12.83;;
3922;SDS011;1976;51.694;6.256;2023-04-16T05:17:14;30.00;;;12.80;;
3922;SDS011;1976;51.694;6.256;2023-04-16T05:19:40;35.00;;;13.83;;
3922;SDS011;1976;51.694;6.256;2023-04-16T05:22:06;30.97;;;13.33;;
3922;SDS011;1976;51.694;6.256;2023-04-16T05:24:32;31.43;;;13.50;;
3922;SDS011;1976;51.694;6.256;2023-04-16T05:26:58;26.60;;;12.37;;
3922;SDS011;1976;51.694;6.256;2023-04-16T05:29:25;27.20;;;12.60;;
3922;SDS011;1976;51.694;6.256;2023-04-16T05:31:51;25.00;;;11.93;;
3922;SDS011;1976;51.694;6.256;2023-04-16T05:34:17;26.90;;;12.50;;
3922;SDS011;1976;51.694;6.256;2023-04-16T05:36:43;23.10;;;11.97;;
3922;SDS011;1976;51.694;6.256;2023-04-16T05:39:09;27.80;;;12.90;;
3922;SDS011;1976;51.694;6.256;2023-04-16T05:41:35;38.13;;;12.70;;
3922;SDS011;1976;51.694;6.256;2023-04-16T05:44:01;26.77;;;11.43;;
3922;SDS011;1976;51.694;6.256;2023-04-16T05:46:27;26.10;;;12.70;;
3922;SDS011;1976;51.694;6.256;2023-04-16T05:48:53;27.67;;;13.00;;
3922;SDS011;1976;51.694;6.256;2023-04-16T05:51:19;30.50;;;13.63;;
3922;SDS011;1976;51.694;6.256;2023-04-16T05:53:47;28.40;;;13.30;;
3922;SDS011;1976;51.694;6.256;2023-04-16T05:56:13;27.90;;;13.57;;
3922;SDS011;1976;51.694;6.256;2023-04-16T05:58:39;39.80;;;13.23;;
3922;SDS011;1976;51.694;6.256;2023-04-16T06:01:05;33.10;;;14.20;;
3922;SDS011;1976;51.694;6.256;2023-04-16T06:03:31;25.53;;;13.20;;
3922;SDS011;1976;51.694;6.256;2023-04-16T06:05:57;32.57;;;12.57;;
3922;SDS011;1976;51.694;6.256;2023-04-16T06:08:23;28.33;;;13.87;;
3922;SDS011;1976;51.694;6.256;2023-04-16T06:10:49;32.20;;;12.93;;
3922;SDS011;1976;51.694;6.256;2023-04-16T06:13:15;31.43;;;14.50;;
3922;SDS011;1976;51.694;6.256;2023-04-16T06:15:41;36.63;;;13.60;;
3922;SDS011;1976;51.694;6.256;2023-04-16T06:18:07;30.23;;;14.47;;
3922;SDS011;1976;51.694;6.256;2023-04-16T06:20:33;31.50;;;15.03;;
3922;SDS011;1976;51.694;6.256;2023-04-16T06:22:59;32.63;;;14.73;;
3922;SDS011;1976;51.694;6.256;2023-04-16T06:25:25;31.03;;;13.33;;
3922;SDS011;1976;51.694;6.256;2023-04-16T06:27:51;39.60;;;15.20;;
3922;SDS011;1976;51.694;6.256;2023-04-16T06:30:17;35.57;;;14.60;;
3922;SDS011;1976;51.694;6.256;2023-04-16T06:32:44;37.03;;;14.57;;
3922;SDS011;1976;51.694;6.256;2023-04-16T06:35:10;30.50;;;14.30;;
3922;SDS011;1976;51.694;6.256;2023-04-16T06:37:36;44.17;;;15.80;;
3922;SDS011;1976;51.694;6.256;2023-04-16T06:40:02;28.93;;;14.70;;
3922;SDS011;1976;51.694;6.256;2023-04-16T06:42:28;37.70;;;15.10;;
3922;SDS011;1976;51.694;6.256;2023-04-16T06:44:54;42.23;;;16.60;;
3922;SDS011;1976;51.694;6.256;2023-04-16T06:47:20;35.07;;;16.33;;
3922;SDS011;1976;51.694;6.256;2023-04-16T06:49:46;44.43;;;16.50;;
3922;SDS011;1976;51.694;6.256;2023-04-16T06:52:12;51.33;;;16.40;;
3922;SDS011;1976;51.694;6.256;2023-04-16T06:54:38;50.93;;;16.57;;
3922;SDS011;1976;51.694;6.256;2023-04-16T06:57:04;37.73;;;16.37;;
3922;SDS011;1976;51.694;6.256;2023-04-16T06:59:30;43.50;;;18.07;;
3922;SDS011;1976;51.694;6.256;2023-04-16T07:01:56;39.20;;;16.50;;
3922;SDS011;1976;51.694;6.256;2023-04-16T07:04:22;39.27;;;16.67;;
3922;SDS011;1976;51.694;6.256;2023-04-16T07:06:48;37.10;;;16.27;;
3922;SDS011;1976;51.694;6.256;2023-04-16T07:09:14;44.27;;;17.10;;
3922;SDS011;1976;51.694;6.256;2023-04-16T07:11:41;38.17;;;16.07;;
3922;SDS011;1976;51.694;6.256;2023-04-16T07:14:08;37.10;;;16.00;;
3922;SDS011;1976;51.694;6.256;2023-04-16T07:16:33;38.83;;;17.00;;
3922;SDS011;1976;51.694;6.256;2023-04-16T07:19:01;37.60;;;16.47;;
3922;SDS011;1976;51.694;6.256;2023-04-16T07:21:27;28.73;;;15.60;;
3922;SDS011;1976;51.694;6.256;2023-04-16T07:23:53;34.20;;;15.93;;
3922;SDS011;1976;51.694;6.256;2023-04-16T07:26:19;34.80;;;16.93;;
3922;SDS011;1976;51.694;6.256;2023-04-16T07:28:45;42.87;;;16.10;;
3922;SDS011;1976;51.694;6.256;2023-04-16T07:31:11;34.77;;;16.17;;
3922;SDS011;1976;51.694;6.256;2023-04-16T07:33:37;37.47;;;17.00;;
3922;SDS011;1976;51.694;6.256;2023-04-16T07:36:03;38.73;;;16.50;;
3922;SDS011;1976;51.694;6.256;2023-04-16T07:38:29;28.33;;;14.57;;
3922;SDS011;1976;51.694;6.256;2023-04-16T07:40:55;29.03;;;15.43;;
3922;SDS011;1976;51.694;6.256;2023-04-16T07:43:21;31.13;;;16.93;;
3922;SDS011;1976;51.694;6.256;2023-04-16T07:45:47;40.23;;;16.20;;
3922;SDS011;1976;51.694;6.256;2023-04-16T07:48:13;33.20;;;16.77;;
3922;SDS011;1976;51.694;6.256;2023-04-16T07:50:39;38.10;;;16.90;;
3922;SDS011;1976;51.694;6.256;2023-04-16T07:53:07;40.63;;;16.90;;
3922;SDS011;1976;51.694;6.256;2023-04-16T07:55:33;32.53;;;15.43;;
3922;SDS011;1976;51.694;6.256;2023-04-16T07:57:59;30.53;;;14.93;;
3922;SDS011;1976;51.694;6.256;2023-04-16T08:00:26;33.20;;;15.00;;
3922;SDS011;1976;51.694;6.256;2023-04-16T08:02:53;48.77;;;16.57;;
3922;SDS011;1976;51.694;6.256;2023-04-16T08:05:19;29.53;;;15.27;;
3922;SDS011;1976;51.694;6.256;2023-04-16T08:07:45;27.60;;;15.33;;
3922;SDS011;1976;51.694;6.256;2023-04-16T08:10:11;27.43;;;16.07;;
3922;SDS011;1976;51.694;6.256;2023-04-16T08:12:37;31.97;;;14.77;;
3922;SDS011;1976;51.694;6.256;2023-04-16T08:15:04;29.40;;;15.80;;
3922;SDS011;1976;51.694;6.256;2023-04-16T08:17:30;35.63;;;15.60;;
3922;SDS011;1976;51.694;6.256;2023-04-16T08:19:58;28.10;;;14.83;;
3922;SDS011;1976;51.694;6.256;2023-04-16T08:22:24;38.23;;;16.20;;
3922;SDS011;1976;51.694;6.256;2023-04-16T08:24:50;28.40;;;14.40;;
3922;SDS011;1976;51.694;6.256;2023-04-16T08:27:16;31.10;;;16.50;;
3922;SDS011;1976;51.694;6.256;2023-04-16T08:29:42;31.00;;;16.10;;
3922;SDS011;1976;51.694;6.256;2023-04-16T08:32:08;40.27;;;16.20;;
3922;SDS011;1976;51.694;6.256;2023-04-16T08:34:35;28.17;;;14.40;;
3922;SDS011;1976;51.694;6.256;2023-04-16T08:37:01;32.03;;;14.53;;
3922;SDS011;1976;51.694;6.256;2023-04-16T08:39:27;27.80;;;15.20;;
3922;SDS011;1976;51.694;6.256;2023-04-16T08:41:52;26.83;;;14.37;;
3922;SDS011;1976;51.694;6.256;2023-04-16T08:44:20;35.13;;;14.83;;
3922;SDS011;1976;51.694;6.256;2023-04-16T08:46:48;34.23;;;16.00;;
3922;SDS011;1976;51.694;6.256;2023-04-16T08:49:18;27.27;;;14.60;;
3922;SDS011;1976;51.694;6.256;2023-04-16T08:51:51;25.03;;;13.90;;
3922;SDS011;1976;51.694;6.256;2023-04-16T08:54:28;28.03;;;16.30;;
3922;SDS011;1976;51.694;6.256;2023-04-16T08:57:11;30.40;;;13.87;;
3922;SDS011;1976;51.694;6.256;2023-04-16T08:59:46;34.20;;;14.50;;
3922;SDS011;1976;51.694;6.256;2023-04-16T09:02:12;35.67;;;13.80;;
3922;SDS011;1976;51.694;6.256;2023-04-16T09:04:40;24.10;;;14.90;;
3922;SDS011;1976;51.694;6.256;2023-04-16T09:07:07;26.87;;;14.03;;
3922;SDS011;1976;51.694;6.256;2023-04-16T09:09:33;24.20;;;13.03;;
3922;SDS011;1976;51.694;6.256;2023-04-16T09:11:59;29.50;;;14.87;;
3922;SDS011;1976;51.694;6.256;2023-04-16T09:14:25;21.80;;;13.07;;
3922;SDS011;1976;51.694;6.256;2023-04-16T09:16:52;22.97;;;14.03;;
3922;SDS011;1976;51.694;6.256;2023-04-16T09:19:19;37.57;;;13.13;;
3922;SDS011;1976;51.694;6.256;2023-04-16T09:21:46;29.33;;;13.97;;
3922;SDS011;1976;51.694;6.256;2023-04-16T09:24:12;26.10;;;13.83;;
3922;SDS011;1976;51.694;6.256;2023-04-16T09:26:39;28.53;;;13.63;;
3922;SDS011;1976;51.694;6.256;2023-04-16T09:29:07;22.93;;;12.63;;
3922;SDS011;1976;51.694;6.256;2023-04-16T09:31:33;19.77;;;11.93;;
3922;SDS011;1976;51.694;6.256;2023-04-16T09:34:01;18.40;;;11.30;;
3922;SDS011;1976;51.694;6.256;2023-04-16T09:36:27;20.80;;;11.03;;
3922;SDS011;1976;51.694;6.256;2023-04-16T09:38:53;17.97;;;10.37;;
3922;SDS011;1976;51.694;6.256;2023-04-16T09:41:23;20.10;;;10.93;;
3922;SDS011;1976;51.694;6.256;2023-04-16T09:43:59;17.17;;;11.03;;
3922;SDS011;1976;51.694;6.256;2023-04-16T09:46:29;17.13;;;10.07;;
3922;SDS011;1976;51.694;6.256;2023-04-16T09:48:56;27.00;;;12.87;;
3922;SDS011;1976;51.694;6.256;2023-04-16T09:51:22;26.83;;;13.13;;
3922;SDS011;1976;51.694;6.256;2023-04-16T09:53:50;19.63;;;10.97;;
3922;SDS011;1976;51.694;6.256;2023-04-16T09:56:18;25.90;;;13.90;;
3922;SDS011;1976;51.694;6.256;2023-04-16T09:58:48;35.37;;;13.83;;
3922;SDS011;1976;51.694;6.256;2023-04-16T10:01:14;23.07;;;12.80;;
3922;SDS011;1976;51.694;6.256;2023-04-16T10:03:42;35.53;;;13.47;;
3922;SDS011;1976;51.694;6.256;2023-04-16T10:06:15;22.47;;;11.97;;
3922;SDS011;1976;51.694;6.256;2023-04-16T10:08:45;28.27;;;13.30;;
3922;SDS011;1976;51.694;6.256;2023-04-16T10:11:15;23.47;;;12.87;;
3922;SDS011;1976;51.694;6.256;2023-04-16T10:13:42;29.43;;;13.00;;
3922;SDS011;1976;51.694;6.256;2023-04-16T10:16:08;21.63;;;12.67;;
3922;SDS011;1976;51.694;6.256;2023-04-16T10:18:34;26.30;;;13.57;;
3922;SDS011;1976;51.694;6.256;2023-04-16T10:21:01;21.37;;;12.63;;
3922;SDS011;1976;51.694;6.256;2023-04-16T10:23:27;23.30;;;13.27;;
3922;SDS011;1976;51.694;6.256;2023-04-16T10:25:53;24.97;;;12.83;;
3922;SDS011;1976;51.694;6.256;2023-04-16T10:28:19;22.93;;;12.73;;
3922;SDS011;1976;51.694;6.256;2023-04-16T10:30:47;20.40;;;11.90;;
3922;SDS011;1976;51.694;6.256;2023-04-16T10:33:20;25.67;;;11.93;;
3922;SDS011;1976;51.694;6.256;2023-04-16T10:35:46;25.73;;;12.60;;
3922;SDS011;1976;51.694;6.256;2023-04-16T10:38:22;21.83;;;12.47;;
3922;SDS011;1976;51.694;6.256;2023-04-16T10:40:49;22.37;;;12.80;;
3922;SDS011;1976;51.694;6.256;2023-04-16T10:43:18;17.10;;;11.17;;
3922;SDS011;1976;51.694;6.256;2023-04-16T10:45:46;25.30;;;10.20;;
3922;SDS011;1976;51.694;6.256;2023-04-16T10:48:11;21.70;;;11.83;;
3922;SDS011;1976;51.694;6.256;2023-04-16T10:50:38;25.77;;;12.50;;
3922;SDS011;1976;51.694;6.256;2023-04-16T10:58:34;29.93;;;12.50;;
3922;SDS011;1976;51.694;6.256;2023-04-16T11:01:46;21.40;;;13.07;;
3922;SDS011;1976;51.694;6.256;2023-04-16T11:03:46;27.13;;;12.03;;
3922;SDS011;1976;51.694;6.256;2023-04-16T11:06:13;19.87;;;11.90;;
3922;SDS011;1976;51.694;6.256;2023-04-16T11:08:40;21.77;;;12.07;;
3922;SDS011;1976;51.694;6.256;2023-04-16T11:11:08;18.73;;;11.67;;
3922;SDS011;1976;51.694;6.256;2023-04-16T11:13:35;20.93;;;11.30;;
3922;SDS011;1976;51.694;6.256;2023-04-16T11:16:01;21.30;;;12.47;;
3922;SDS011;1976;51.694;6.256;2023-04-16T11:18:28;19.70;;;11.93;;
3922;SDS011;1976;51.694;6.256;2023-04-16T11:20:54;25.87;;;13.10;;
3922;SDS011;1976;51.694;6.256;2023-04-16T11:23:20;19.90;;;12.13;;
3922;SDS011;1976;51.694;6.256;2023-04-16T11:25:46;23.00;;;11.83;;
3922;SDS011;1976;51.694;6.256;2023-04-16T11:28:12;25.33;;;12.30;;
3922;SDS011;1976;51.694;6.256;2023-04-16T11:30:38;18.40;;;11.70;;
3922;SDS011;1976;51.694;6.256;2023-04-16T11:33:09;16.83;;;10.67;;
3922;SDS011;1976;51.694;6.256;2023-04-16T11:35:38;21.60;;;12.00;;
3922;SDS011;1976;51.694;6.256;2023-04-16T11:38:05;21.50;;;12.90;;
3922;SDS011;1976;51.694;6.256;2023-04-16T11:40:31;25.30;;;14.37;;
3922;SDS011;1976;51.694;6.256;2023-04-16T11:43:01;16.10;;;12.20;;
3922;SDS011;1976;51.694;6.256;2023-04-16T11:45:27;18.20;;;11.73;;
3922;SDS011;1976;51.694;6.256;2023-04-16T11:47:53;19.43;;;11.00;;
3922;SDS011;1976;51.694;6.256;2023-04-16T11:50:25;20.57;;;11.60;;
3922;SDS011;1976;51.694;6.256;2023-04-16T11:52:53;29.97;;;12.07;;
3922;SDS011;1976;51.694;6.256;2023-04-16T11:55:20;21.87;;;13.57;;
3922;SDS011;1976;51.694;6.256;2023-04-16T11:57:46;23.00;;;13.10;;
3922;SDS011;1976;51.694;6.256;2023-04-16T12:00:13;22.40;;;13.43;;
3922;SDS011;1976;51.694;6.256;2023-04-16T12:02:43;20.50;;;12.37;;
3922;SDS011;1976;51.694;6.256;2023-04-16T12:07:55;17.03;;;11.50;;
3922;SDS011;1976;51.694;6.256;2023-04-16T12:10:21;30.10;;;12.83;;
3922;SDS011;1976;51.694;6.256;2023-04-16T12:12:47;19.17;;;11.23;;
3922;SDS011;1976;51.694;6.256;2023-04-16T12:15:13;19.03;;;11.37;;
3922;SDS011;1976;51.694;6.256;2023-04-16T12:17:38;27.40;;;11.67;;
3922;SDS011;1976;51.694;6.256;2023-04-16T12:20:08;17.80;;;12.20;;
3922;SDS011;1976;51.694;6.256;2023-04-16T12:22:38;21.13;;;12.57;;
3922;SDS011;1976;51.694;6.256;2023-04-16T12:25:06;22.43;;;11.80;;
3922;SDS011;1976;51.694;6.256;2023-04-16T12:27:42;18.80;;;12.10;;
3922;SDS011;1976;51.694;6.256;2023-04-16T12:30:13;19.40;;;11.57;;
3922;SDS011;1976;51.694;6.256;2023-04-16T12:32:40;22.80;;;12.50;;
3922;SDS011;1976;51.694;6.256;2023-04-16T12:35:07;20.43;;;11.93;;
3922;SDS011;1976;51.694;6.256;2023-04-16T12:37:34;23.80;;;13.17;;
3922;SDS011;1976;51.694;6.256;2023-04-16T12:40:00;20.03;;;13.07;;
3922;SDS011;1976;51.694;6.256;2023-04-16T12:42:26;23.07;;;11.40;;
3922;SDS011;1976;51.694;6.256;2023-04-16T12:44:58;15.90;;;11.53;;
3922;SDS011;1976;51.694;6.256;2023-04-16T12:47:24;19.53;;;10.57;;
3922;SDS011;1976;51.694;6.256;2023-04-16T12:49:50;18.43;;;11.60;;
3922;SDS011;1976;51.694;6.256;2023-04-16T12:52:16;21.03;;;10.37;;
3922;SDS011;1976;51.694;6.256;2023-04-16T12:54:41;13.77;;;10.10;;
3922;SDS011;1976;51.694;6.256;2023-04-16T12:57:07;20.40;;;10.10;;
3922;SDS011;1976;51.694;6.256;2023-04-16T12:59:33;15.03;;;10.40;;
3922;SDS011;1976;51.694;6.256;2023-04-16T13:02:00;18.87;;;11.00;;
3922;SDS011;1976;51.694;6.256;2023-04-16T13:04:26;14.07;;;10.50;;
3922;SDS011;1976;51.694;6.256;2023-04-16T13:06:52;16.80;;;10.60;;
3922;SDS011;1976;51.694;6.256;2023-04-16T13:09:18;16.60;;;9.60;;
3922;SDS011;1976;51.694;6.256;2023-04-16T13:11:44;18.00;;;11.10;;
3922;SDS011;1976;51.694;6.256;2023-04-16T13:14:10;17.77;;;10.67;;
3922;SDS011;1976;51.694;6.256;2023-04-16T13:16:36;25.23;;;11.23;;
3922;SDS011;1976;51.694;6.256;2023-04-16T13:19:02;14.63;;;9.80;;
3922;SDS011;1976;51.694;6.256;2023-04-16T13:21:28;15.93;;;9.90;;
3922;SDS011;1976;51.694;6.256;2023-04-16T13:23:54;17.87;;;12.33;;
3922;SDS011;1976;51.694;6.256;2023-04-16T13:26:20;19.67;;;11.47;;
3922;SDS011;1976;51.694;6.256;2023-04-16T13:28:46;18.60;;;11.50;;
3922;SDS011;1976;51.694;6.256;2023-04-16T13:31:12;25.73;;;11.67;;
3922;SDS011;1976;51.694;6.256;2023-04-16T13:33:39;33.33;;;13.60;;
3922;SDS011;1976;51.694;6.256;2023-04-16T13:36:05;32.10;;;12.97;;
3922;SDS011;1976;51.694;6.256;2023-04-16T13:38:31;36.30;;;13.70;;
3922;SDS011;1976;51.694;6.256;2023-04-16T13:40:57;24.20;;;13.30;;
3922;SDS011;1976;51.694;6.256;2023-04-16T13:43:23;31.53;;;13.83;;
3922;SDS011;1976;51.694;6.256;2023-04-16T13:45:49;28.23;;;13.13;;
3922;SDS011;1976;51.694;6.256;2023-04-16T13:48:15;28.20;;;12.63;;
3922;SDS011;1976;51.694;6.256;2023-04-16T13:50:41;29.23;;;13.47;;
3922;SDS011;1976;51.694;6.256;2023-04-16T13:53:07;22.70;;;13.00;;
3922;SDS011;1976;51.694;6.256;2023-04-16T13:55:33;26.23;;;12.97;;
3922;SDS011;1976;51.694;6.256;2023-04-16T13:57:59;20.53;;;10.83;;
3922;SDS011;1976;51.694;6.256;2023-04-16T14:00:25;22.60;;;13.20;;
3922;SDS011;1976;51.694;6.256;2023-04-16T14:02:51;23.70;;;12.73;;
3922;SDS011;1976;51.694;6.256;2023-04-16T14:05:17;26.13;;;13.10;;
3922;SDS011;1976;51.694;6.256;2023-04-16T14:07:44;26.37;;;12.40;;
3922;SDS011;1976;51.694;6.256;2023-04-16T14:10:10;22.87;;;13.40;;
3922;SDS011;1976;51.694;6.256;2023-04-16T14:12:39;24.63;;;12.80;;
3922;SDS011;1976;51.694;6.256;2023-04-16T14:15:05;30.77;;;13.57;;
3922;SDS011;1976;51.694;6.256;2023-04-16T14:17:33;24.83;;;13.07;;
3922;SDS011;1976;51.694;6.256;2023-04-16T14:20:00;35.77;;;14.47;;
3922;SDS011;1976;51.694;6.256;2023-04-16T14:22:26;34.33;;;14.87;;
3922;SDS011;1976;51.694;6.256;2023-04-16T14:24:51;26.43;;;14.80;;
3922;SDS011;1976;51.694;6.256;2023-04-16T14:27:17;29.37;;;14.37;;
3922;SDS011;1976;51.694;6.256;2023-04-16T14:29:43;34.10;;;14.40;;
3922;SDS011;1976;51.694;6.256;2023-04-16T14:32:10;27.93;;;14.40;;
3922;SDS011;1976;51.694;6.256;2023-04-16T14:34:36;41.63;;;15.30;;
3922;SDS011;1976;51.694;6.256;2023-04-16T14:37:02;24.50;;;13.43;;
3922;SDS011;1976;51.694;6.256;2023-04-16T14:39:28;22.00;;;12.33;;
3922;SDS011;1976;51.694;6.256;2023-04-16T14:41:54;28.73;;;13.93;;
3922;SDS011;1976;51.694;6.256;2023-04-16T14:44:20;29.17;;;14.30;;
3922;SDS011;1976;51.694;6.256;2023-04-16T14:46:46;26.00;;;13.33;;
3922;SDS011;1976;51.694;6.256;2023-04-16T14:49:12;21.80;;;13.70;;
3922;SDS011;1976;51.694;6.256;2023-04-16T14:51:38;34.53;;;14.47;;
3922;SDS011;1976;51.694;6.256;2023-04-16T14:54:05;25.00;;;12.50;;
3922;SDS011;1976;51.694;6.256;2023-04-16T14:56:31;27.03;;;12.47;;